Time;durP1;ratioP1;P1;durP2;ratioP2;P2;SDS_P1;SDS_P2;PMS_P1;PMS_P2;Temp;Humidity;BMP_temperature;BMP_pressure;BME280_temperature;BME280_humidity;BME280_pressure;Samples;Min_cycle;Max_cycle;Signal;HPM_P1;HPM_P2
2022/02/20 00:00:38;;;;;;;12.15;2.08;;;5.30;99.90;;;;;;4995762;28;25054;-68
2022/02/20 00:03:04;;;;;;;9.60;1.48;;;5.40;99.90;;;;;;4999867;28;25150;-69
2022/02/20 00:05:30;;;;;;;16.38;1.52;;;5.30;99.90;;;;;;5003600;28;25071;-70
2022/02/20 00:07:56;;;;;;;11.50;2.55;;;5.30;99.90;;;;;;4994743;28;25079;-68
2022/02/20 00:10:22;;;;;;;13.35;1.67;;;5.30;99.90;;;;;;5000797;28;25060;-69
2022/02/20 00:12:47;;;;;;;9.20;1.58;;;5.30;99.90;;;;;;5004480;28;25113;-71
2022/02/20 00:15:13;;;;;;;6.63;1.98;;;5.30;99.90;;;;;;4980317;28;25053;-69
2022/02/20 00:17:39;;;;;;;11.68;1.90;;;5.40;99.90;;;;;;4999726;28;25188;-69
2022/02/20 00:20:05;;;;;;;16.83;2.33;;;5.30;99.90;;;;;;5003790;28;25070;-69
2022/02/20 00:22:31;;;;;;;10.68;2.05;;;5.40;99.90;;;;;;5010187;28;25076;-70
2022/02/20 00:24:57;;;;;;;12.00;2.30;;;5.40;99.90;;;;;;4994523;28;25101;-70
2022/02/20 00:27:23;;;;;;;12.07;1.80;;;5.40;99.90;;;;;;4999391;28;25067;-69
2022/02/20 00:29:49;;;;;;;10.07;2.13;;;5.40;99.90;;;;;;4989681;28;25062;-69
2022/02/20 00:32:15;;;;;;;13.23;1.88;;;5.40;99.90;;;;;;5005411;28;25085;-69
2022/02/20 00:34:41;;;;;;;8.00;1.30;;;5.40;99.90;;;;;;4997712;28;25073;-69
2022/02/20 00:37:07;;;;;;;9.10;1.52;;;5.40;99.90;;;;;;5001976;28;25071;-70
2022/02/20 00:39:33;;;;;;;8.82;1.33;;;5.40;99.90;;;;;;4997868;28;25059;-69
2022/02/20 00:41:58;;;;;;;7.53;1.98;;;5.40;99.90;;;;;;5003380;28;25058;-69
2022/02/20 00:44:24;;;;;;;8.95;1.33;;;5.40;99.90;;;;;;5011561;28;25059;-69
2022/02/20 00:46:50;;;;;;;12.40;1.75;;;5.50;99.90;;;;;;5015641;28;25062;-69
2022/02/20 00:49:15;;;;;;;15.27;1.48;;;5.50;99.90;;;;;;5020457;28;25065;-70
2022/02/20 00:51:41;;;;;;;10.93;1.83;;;5.50;99.90;;;;;;5006733;28;25075;-68
2022/02/20 00:54:09;;;;;;;8.30;1.38;;;5.40;99.90;;;;;;5027129;28;25072;-70
2022/02/20 00:56:36;;;;;;;8.70;1.50;;;5.40;99.90;;;;;;5033449;28;25077;-69
2022/02/20 00:59:06;;;;;;;4.90;1.20;;;5.50;99.90;;;;;;5033627;28;25067;-70
2022/02/20 01:01:32;;;;;;;9.70;1.60;;;5.50;99.90;;;;;;5033295;28;25059;-69
2022/02/20 01:03:58;;;;;;;7.03;0.98;;;5.40;99.90;;;;;;5023077;28;25078;-69
2022/02/20 01:06:24;;;;;;;8.18;1.67;;;5.40;99.90;;;;;;5019796;28;25082;-69
2022/02/20 01:08:50;;;;;;;8.70;0.98;;;5.40;99.90;;;;;;5005140;28;25079;-69
2022/02/20 01:11:16;;;;;;;8.70;1.17;;;5.40;99.90;;;;;;5006170;28;25093;-70
2022/02/20 01:13:42;;;;;;;11.07;1.35;;;5.40;99.90;;;;;;5009254;28;25114;-69
2022/02/20 01:16:08;;;;;;;12.88;1.40;;;5.40;99.90;;;;;;5012142;28;25074;-70
2022/02/20 01:18:33;;;;;;;7.75;1.02;;;5.50;99.90;;;;;;4993251;28;25077;-70
2022/02/20 01:20:59;;;;;;;5.90;1.55;;;5.50;99.90;;;;;;5008930;28;25080;-69
2022/02/20 01:23:25;;;;;;;9.02;1.33;;;5.50;99.90;;;;;;5008290;28;25076;-70
2022/02/20 01:25:51;;;;;;;11.50;2.03;;;5.50;99.90;;;;;;5009352;28;25069;-69
2022/02/20 01:28:17;;;;;;;7.35;0.98;;;5.50;99.90;;;;;;4994159;28;25072;-69
2022/02/20 01:30:42;;;;;;;9.38;1.83;;;5.50;99.90;;;;;;5008097;28;25397;-67
2022/02/20 01:33:08;;;;;;;6.60;1.52;;;5.50;99.90;;;;;;5012631;28;25075;-69
2022/02/20 01:35:34;;;;;;;6.25;1.33;;;5.50;99.90;;;;;;5011223;28;25101;-69
2022/02/20 01:37:59;;;;;;;5.05;1.17;;;5.50;99.90;;;;;;5006017;28;25069;-67
2022/02/20 01:40:27;;;;;;;12.50;3.83;;;5.50;99.90;;;;;;5001238;28;25129;-69
2022/02/20 01:42:53;;;;;;;10.05;4.88;;;5.50;99.90;;;;;;5011041;28;25082;-69
2022/02/20 01:45:18;;;;;;;14.40;3.78;;;5.50;99.90;;;;;;4993479;28;25059;-70
2022/02/20 01:47:44;;;;;;;6.10;2.58;;;5.60;99.90;;;;;;5011291;28;25063;-69
2022/02/20 01:50:11;;;;;;;5.13;2.08;;;5.60;99.90;;;;;;5013214;28;25054;-70
2022/02/20 01:52:38;;;;;;;8.57;1.65;;;5.50;99.90;;;;;;4994051;28;25084;-70
2022/02/20 01:55:09;;;;;;;10.85;1.40;;;5.50;99.90;;;;;;5003542;28;25072;-71
2022/02/20 01:57:39;;;;;;;10.88;1.70;;;5.50;99.90;;;;;;5014820;28;25075;-69
2022/02/20 02:00:12;;;;;;;7.45;1.85;;;5.60;99.90;;;;;;5011438;28;25103;-70
2022/02/20 02:02:38;;;;;;;8.23;1.63;;;5.50;99.90;;;;;;5011426;28;25052;-70
2022/02/20 02:05:05;;;;;;;9.65;1.50;;;5.40;99.90;;;;;;5014512;28;25050;-69
2022/02/20 02:07:31;;;;;;;10.25;1.48;;;5.50;99.90;;;;;;5023865;28;25148;-70
2022/02/20 02:09:57;;;;;;;5.18;1.42;;;5.50;99.90;;;;;;5020612;28;25102;-70
2022/02/20 02:12:23;;;;;;;5.32;1.20;;;5.50;99.90;;;;;;5013052;28;25124;-71
2022/02/20 02:14:56;;;;;;;6.90;1.95;;;5.50;99.90;;;;;;5011534;28;25136;-72
2022/02/20 02:17:22;;;;;;;9.25;1.60;;;5.50;99.90;;;;;;5012784;28;25074;-70
2022/02/20 02:19:47;;;;;;;12.80;1.48;;;5.40;99.90;;;;;;5011671;28;25099;-68
2022/02/20 02:22:13;;;;;;;14.93;1.67;;;5.40;99.90;;;;;;5010845;28;25074;-70
2022/02/20 02:24:38;;;;;;;8.30;1.80;;;5.40;99.90;;;;;;5011225;28;25057;-69
2022/02/20 02:27:04;;;;;;;15.82;1.77;;;5.40;99.90;;;;;;5011593;28;25054;-69
2022/02/20 02:29:30;;;;;;;9.80;2.03;;;5.40;99.90;;;;;;5010893;28;25084;-70
2022/02/20 02:31:56;;;;;;;7.35;1.60;;;5.40;99.90;;;;;;5011095;28;25115;-70
2022/02/20 02:34:21;;;;;;;6.18;2.00;;;5.40;99.90;;;;;;4992974;28;25091;-69
2022/02/20 02:36:51;;;;;;;8.07;1.98;;;5.30;99.90;;;;;;5010820;28;25123;-69
2022/02/20 02:39:17;;;;;;;6.03;1.90;;;5.30;99.90;;;;;;5011146;28;25169;-69
2022/02/20 02:41:43;;;;;;;12.13;2.55;;;5.30;99.90;;;;;;4986568;28;25060;-69
2022/02/20 02:44:08;;;;;;;7.63;2.20;;;5.30;99.90;;;;;;5009117;28;25079;-69
2022/02/20 02:46:34;;;;;;;8.20;2.00;;;5.30;99.90;;;;;;5010015;28;25058;-69
2022/02/20 02:49:01;;;;;;;8.02;1.98;;;5.30;99.90;;;;;;4992468;28;25060;-69
2022/02/20 02:51:27;;;;;;;15.40;2.72;;;5.30;99.90;;;;;;5008813;28;25069;-69
2022/02/20 02:53:55;;;;;;;14.65;2.10;;;5.40;99.90;;;;;;5008376;28;25078;-69
2022/02/20 02:56:21;;;;;;;9.65;1.75;;;5.30;99.90;;;;;;4992421;28;25149;-69
2022/02/20 02:58:47;;;;;;;11.35;2.22;;;5.30;99.90;;;;;;4992864;28;25068;-69
2022/02/20 03:01:13;;;;;;;13.77;2.20;;;5.30;99.90;;;;;;5010238;28;25066;-69
2022/02/20 03:03:39;;;;;;;9.38;2.50;;;5.20;99.90;;;;;;5010182;28;25067;-69
2022/02/20 03:06:13;;;;;;;14.77;2.25;;;5.20;99.90;;;;;;4992179;28;25062;-69
2022/02/20 03:08:39;;;;;;;14.13;3.13;;;5.10;99.90;;;;;;5010163;28;25066;-69
2022/02/20 03:11:05;;;;;;;7.85;2.38;;;5.10;99.90;;;;;;5009677;28;25055;-69
2022/02/20 03:13:32;;;;;;;11.63;2.85;;;5.10;99.90;;;;;;5009605;28;25132;-70
2022/02/20 03:15:58;;;;;;;8.07;3.13;;;5.10;99.90;;;;;;5009726;28;25068;-68
2022/02/20 03:18:24;;;;;;;15.25;3.90;;;5.00;99.90;;;;;;5009908;28;25169;-68
2022/02/20 03:20:50;;;;;;;10.95;3.95;;;5.00;99.90;;;;;;5009612;28;25118;-69
2022/02/20 03:23:16;;;;;;;9.88;4.05;;;4.90;99.90;;;;;;5009361;28;25131;-68
2022/02/20 03:25:42;;;;;;;11.18;4.00;;;4.90;99.90;;;;;;5009718;28;25094;-69
2022/02/20 03:28:08;;;;;;;10.82;4.15;;;4.90;99.90;;;;;;5009811;28;25101;-69
2022/02/20 03:30:33;;;;;;;16.27;4.07;;;4.80;99.90;;;;;;5009278;28;25091;-69
2022/02/20 03:32:59;;;;;;;10.85;4.60;;;4.90;99.90;;;;;;5009589;28;25044;-69
2022/02/20 03:35:25;;;;;;;13.45;5.25;;;4.90;99.90;;;;;;5008685;28;25049;-70
2022/02/20 03:37:51;;;;;;;13.57;4.82;;;4.90;99.90;;;;;;5009034;28;25067;-69
2022/02/20 03:40:17;;;;;;;11.70;4.90;;;4.90;99.90;;;;;;5009005;28;25061;-69
2022/02/20 03:42:42;;;;;;;10.35;5.43;;;4.90;99.90;;;;;;4987757;28;25159;-68
2022/02/20 03:45:09;;;;;;;10.27;5.15;;;5.00;99.90;;;;;;5005173;28;25146;-69
2022/02/20 03:47:34;;;;;;;16.42;6.75;;;5.10;99.90;;;;;;4991520;28;25138;-70
2022/02/20 03:50:00;;;;;;;14.55;8.00;;;5.10;99.90;;;;;;4981040;28;25062;-69
2022/02/20 03:52:25;;;;;;;15.27;7.28;;;5.00;99.90;;;;;;5008534;28;25079;-70
2022/02/20 03:54:51;;;;;;;16.52;7.93;;;5.00;99.90;;;;;;5007837;28;25149;-69
2022/02/20 03:57:16;;;;;;;14.15;8.50;;;5.00;99.90;;;;;;5009127;28;25094;-70
2022/02/20 03:59:42;;;;;;;15.15;7.57;;;5.00;99.90;;;;;;5017547;28;25055;-69
2022/02/20 04:02:08;;;;;;;17.00;7.53;;;5.00;99.90;;;;;;5011549;28;25130;-70
2022/02/20 04:04:34;;;;;;;17.38;8.10;;;5.00;99.90;;;;;;5008630;28;25082;-70
2022/02/20 04:06:59;;;;;;;14.80;9.18;;;5.00;99.90;;;;;;5009786;28;25082;-70
2022/02/20 04:09:25;;;;;;;17.23;9.18;;;4.90;99.90;;;;;;5008695;28;25075;-69
2022/02/20 04:11:51;;;;;;;16.83;8.75;;;4.90;99.90;;;;;;5009425;28;25178;-70
2022/02/20 04:14:17;;;;;;;21.25;11.30;;;5.00;99.90;;;;;;5008787;28;25097;-70
2022/02/20 04:16:42;;;;;;;24.98;9.85;;;5.00;99.90;;;;;;5008888;28;25117;-69
2022/02/20 04:19:09;;;;;;;19.27;9.65;;;5.00;99.90;;;;;;5009399;28;25069;-66
2022/02/20 04:21:34;;;;;;;22.85;11.65;;;5.00;99.90;;;;;;5009055;28;25071;-69
2022/02/20 04:24:00;;;;;;;15.63;10.18;;;5.00;99.90;;;;;;4991272;28;25141;-69
2022/02/20 04:26:26;;;;;;;19.17;11.68;;;5.00;99.90;;;;;;4990972;28;25067;-69
2022/02/20 04:28:51;;;;;;;23.27;10.73;;;5.00;99.90;;;;;;5009375;28;25071;-70
2022/02/20 04:31:17;;;;;;;22.95;11.50;;;5.00;99.90;;;;;;5008665;28;25135;-71
2022/02/20 04:33:43;;;;;;;21.17;12.75;;;5.00;99.90;;;;;;4990824;28;25062;-70
2022/02/20 04:36:10;;;;;;;28.95;13.25;;;5.10;99.90;;;;;;5008742;28;25129;-69
2022/02/20 04:38:35;;;;;;;31.42;13.90;;;5.00;99.90;;;;;;5008311;28;25069;-71
2022/02/20 04:41:01;;;;;;;24.63;12.48;;;5.10;99.90;;;;;;4990655;28;25135;-71
2022/02/20 04:43:27;;;;;;;26.05;13.43;;;5.10;99.90;;;;;;5008229;28;25114;-71
2022/02/20 04:45:52;;;;;;;28.38;14.38;;;5.10;99.90;;;;;;5009232;28;25052;-71
2022/02/20 04:48:18;;;;;;;24.90;13.73;;;5.10;99.90;;;;;;5008804;28;25072;-69
2022/02/20 04:50:44;;;;;;;29.17;14.48;;;5.00;99.90;;;;;;5010304;28;25056;-71
2022/02/20 04:53:10;;;;;;;29.95;14.20;;;5.00;99.90;;;;;;5015433;28;25059;-72
2022/02/20 04:55:35;;;;;;;36.92;17.55;;;5.00;99.90;;;;;;5028344;28;25104;-70
2022/02/20 04:58:01;;;;;;;31.40;16.15;;;5.10;99.90;;;;;;5029588;28;25065;-71
2022/02/20 05:00:27;;;;;;;36.13;15.95;;;5.10;99.90;;;;;;5012290;28;25075;-70
2022/02/20 05:02:53;;;;;;;35.92;15.57;;;5.20;99.90;;;;;;5009245;28;25072;-71
2022/02/20 05:05:19;;;;;;;44.38;16.20;;;5.20;99.90;;;;;;5011668;28;25047;-71
2022/02/20 05:07:44;;;;;;;35.65;16.20;;;5.20;99.90;;;;;;5006830;28;25077;-70
2022/02/20 05:10:10;;;;;;;36.97;19.27;;;5.20;99.90;;;;;;4993920;28;25086;-71
2022/02/20 05:12:36;;;;;;;38.53;15.27;;;5.30;99.90;;;;;;4997344;28;25073;-69
2022/02/20 05:15:01;;;;;;;35.50;15.68;;;5.40;99.90;;;;;;4994564;28;25083;-71
2022/02/20 05:17:27;;;;;;;32.72;14.77;;;5.40;99.90;;;;;;4993012;28;25050;-71
2022/02/20 05:19:52;;;;;;;43.08;15.32;;;5.40;99.90;;;;;;4990607;28;25156;-70
2022/02/20 05:22:18;;;;;;;35.38;14.93;;;5.50;99.90;;;;;;4995423;28;25081;-70
2022/02/20 05:24:45;;;;;;;45.13;16.83;;;5.50;99.90;;;;;;4994222;28;25077;-70
2022/02/20 05:27:11;;;;;;;37.53;14.75;;;5.50;99.90;;;;;;4993883;28;25060;-72
2022/02/20 05:29:37;;;;;;;41.45;15.65;;;5.60;99.90;;;;;;5004888;28;25082;-70
2022/02/20 05:32:04;;;;;;;44.92;14.75;;;5.70;99.90;;;;;;4990047;28;25161;-70
2022/02/20 05:34:29;;;;;;;44.45;14.63;;;5.70;99.90;;;;;;5006381;28;25053;-70
2022/02/20 05:36:54;;;;;;;42.15;15.10;;;5.70;99.90;;;;;;5007311;28;25071;-71
2022/02/20 05:39:20;;;;;;;50.67;15.48;;;5.80;99.90;;;;;;5007258;28;25124;-72
2022/02/20 05:41:46;;;;;;;48.72;14.93;;;5.80;99.90;;;;;;5008349;28;25070;-70
2022/02/20 05:44:11;;;;;;;50.40;14.75;;;5.80;99.90;;;;;;5007099;28;25069;-72
2022/02/20 05:46:37;;;;;;;43.33;15.43;;;5.90;99.90;;;;;;5002609;28;25072;-69
2022/02/20 05:49:04;;;;;;;45.88;14.43;;;5.90;99.90;;;;;;4998370;28;25191;-69
2022/02/20 05:51:31;;;;;;;49.28;14.95;;;6.00;99.90;;;;;;4991929;28;25098;-68
2022/02/20 05:53:56;;;;;;;51.55;16.88;;;6.10;99.90;;;;;;4999793;28;25127;-70
2022/02/20 05:56:22;;;;;;;55.60;14.93;;;6.10;99.90;;;;;;4992049;28;25057;-69
2022/02/20 05:58:47;;;;;;;56.72;16.33;;;6.20;99.90;;;;;;4999869;28;25069;-71
2022/02/20 06:01:13;;;;;;;55.67;15.30;;;6.30;99.90;;;;;;5000073;28;25063;-70
2022/02/20 06:03:38;;;;;;;52.60;16.83;;;6.30;99.90;;;;;;5005792;28;25144;-71
2022/02/20 06:06:04;;;;;;;58.17;17.25;;;6.40;99.90;;;;;;5007333;28;25071;-70
2022/02/20 06:08:30;;;;;;;47.25;14.95;;;6.50;99.90;;;;;;5014474;28;25120;-68
2022/02/20 06:10:56;;;;;;;54.80;16.33;;;6.60;99.90;;;;;;5017195;28;25133;-68
2022/02/20 06:13:22;;;;;;;55.30;17.48;;;6.70;99.90;;;;;;5008113;28;25086;-70
2022/02/20 06:15:48;;;;;;;38.63;11.70;;;6.80;99.90;;;;;;5008461;28;25068;-69
2022/02/20 06:18:14;;;;;;;48.88;12.10;;;7.10;99.90;;;;;;4992673;28;25148;-71
2022/02/20 06:20:39;;;;;;;45.83;13.25;;;7.40;99.90;;;;;;5010348;28;25050;-67
2022/02/20 06:23:05;;;;;;;45.08;11.35;;;7.50;99.90;;;;;;5004905;28;25076;-69
2022/02/20 06:25:31;;;;;;;48.60;11.85;;;7.50;99.90;;;;;;5007269;28;25160;-68
2022/02/20 06:27:57;;;;;;;42.88;13.23;;;7.60;99.90;;;;;;5010107;28;25102;-68
2022/02/20 06:30:22;;;;;;;40.22;12.75;;;7.60;99.90;;;;;;5011050;28;25106;-69
2022/02/20 06:32:48;;;;;;;49.75;14.05;;;7.70;99.90;;;;;;4992436;28;25075;-69
2022/02/20 06:35:14;;;;;;;41.05;12.50;;;7.70;99.90;;;;;;5002126;28;25091;-70
2022/02/20 06:37:40;;;;;;;42.40;12.32;;;7.80;99.90;;;;;;5004460;28;25048;-70
2022/02/20 06:40:06;;;;;;;40.67;12.52;;;7.80;99.90;;;;;;5001639;28;25069;-69
2022/02/20 06:42:32;;;;;;;49.45;11.45;;;7.90;99.90;;;;;;5005523;28;25058;-69
2022/02/20 06:44:57;;;;;;;38.50;12.35;;;8.00;99.90;;;;;;5010618;28;25164;-71
2022/02/20 06:47:23;;;;;;;44.33;12.80;;;8.00;99.90;;;;;;5009830;28;25057;-70
2022/02/20 06:49:48;;;;;;;47.22;12.18;;;8.10;99.90;;;;;;5011059;28;25074;-68
2022/02/20 06:52:14;;;;;;;41.80;11.07;;;8.10;99.90;;;;;;5011479;28;25190;-68
2022/02/20 06:54:39;;;;;;;42.55;11.32;;;8.10;99.90;;;;;;5010367;28;25066;-71
2022/02/20 06:57:05;;;;;;;34.70;10.30;;;8.20;99.90;;;;;;5009400;28;25149;-70
2022/02/20 06:59:30;;;;;;;39.85;11.30;;;8.20;99.90;;;;;;5010259;28;25065;-70
2022/02/20 07:01:56;;;;;;;38.33;10.15;;;8.20;99.90;;;;;;5009178;28;25097;-71
2022/02/20 07:04:21;;;;;;;39.75;9.65;;;8.30;99.90;;;;;;5008933;28;25080;-73
2022/02/20 07:06:47;;;;;;;32.72;9.80;;;8.30;99.90;;;;;;5003149;28;25051;-70
2022/02/20 07:09:14;;;;;;;35.35;9.23;;;8.40;99.90;;;;;;5009641;28;25074;-72
2022/02/20 07:11:41;;;;;;;42.83;10.70;;;8.40;99.90;;;;;;5009955;28;25173;-70
2022/02/20 07:14:07;;;;;;;29.88;9.40;;;8.40;99.90;;;;;;5009401;28;25150;-70
2022/02/20 07:16:33;;;;;;;38.03;10.57;;;8.50;99.90;;;;;;5009795;28;25056;-71
2022/02/20 07:19:00;;;;;;;37.60;9.65;;;8.50;99.90;;;;;;5009566;28;25086;-69
2022/02/20 07:21:28;;;;;;;35.03;9.85;;;8.50;99.90;;;;;;5009493;28;25073;-72
2022/02/20 07:23:54;;;;;;;43.70;10.07;;;8.50;99.90;;;;;;5011148;28;25088;-71
2022/02/20 07:26:19;;;;;;;50.53;9.75;;;8.50;99.90;;;;;;5011122;28;25100;-71
2022/02/20 07:28:45;;;;;;;48.25;10.50;;;8.60;99.90;;;;;;5008327;28;25083;-71
2022/02/20 07:31:11;;;;;;;40.13;9.57;;;8.60;99.90;;;;;;5010436;28;25064;-70
2022/02/20 07:33:37;;;;;;;58.53;10.25;;;8.70;99.90;;;;;;4992201;28;25053;-70
2022/02/20 07:36:02;;;;;;;47.53;10.30;;;8.70;99.90;;;;;;5024972;28;25068;-70
2022/02/20 07:38:28;;;;;;;36.80;8.77;;;8.70;99.90;;;;;;5011392;28;25081;-72
2022/02/20 07:40:54;;;;;;;53.28;10.80;;;8.80;99.90;;;;;;5009838;28;25078;-71
2022/02/20 07:43:20;;;;;;;62.58;11.95;;;8.80;99.90;;;;;;5008964;28;25097;-71
2022/02/20 07:45:45;;;;;;;55.92;10.52;;;8.90;99.90;;;;;;5010027;28;25071;-69
2022/02/20 07:48:11;;;;;;;57.38;11.02;;;8.90;99.90;;;;;;5007519;28;25095;-70
2022/02/20 07:50:38;;;;;;;57.67;11.32;;;9.00;99.90;;;;;;5002085;28;25066;-70
2022/02/20 07:53:05;;;;;;;59.97;11.13;;;9.00;99.90;;;;;;5009747;28;25080;-70
2022/02/20 07:55:32;;;;;;;51.85;9.48;;;9.00;99.90;;;;;;5015723;28;25065;-70
2022/02/20 07:58:02;;;;;;;55.00;11.32;;;9.00;99.90;;;;;;4998867;28;25058;-70
2022/02/20 08:00:30;;;;;;;54.05;11.10;;;9.00;99.90;;;;;;5002459;28;25055;-70
2022/02/20 08:03:00;;;;;;;54.45;10.90;;;9.00;99.90;;;;;;4999457;28;25057;-70
2022/02/20 08:05:26;;;;;;;62.53;12.98;;;9.00;99.90;;;;;;5016433;28;25039;-68
2022/02/20 08:07:52;;;;;;;52.45;10.93;;;9.00;99.90;;;;;;5022199;28;25049;-70
2022/02/20 08:10:18;;;;;;;59.35;11.93;;;9.10;99.90;;;;;;5008519;28;25063;-69
2022/02/20 08:12:43;;;;;;;74.43;11.98;;;9.10;99.90;;;;;;5026176;28;25042;-69
2022/02/20 08:15:09;;;;;;;66.00;10.82;;;9.10;99.90;;;;;;5024162;28;25073;-70
2022/02/20 08:17:44;;;;;;;49.17;10.43;;;9.10;99.90;;;;;;5020486;28;25108;-70
2022/02/20 08:20:11;;;;;;;62.78;12.32;;;9.10;99.90;;;;;;4992659;28;25065;-69
2022/02/20 08:22:36;;;;;;;61.95;11.35;;;9.20;99.90;;;;;;5001796;28;25068;-69
2022/02/20 08:25:02;;;;;;;80.78;12.60;;;9.20;99.90;;;;;;4997764;28;25074;-69
2022/02/20 08:27:33;;;;;;;59.72;12.00;;;9.20;99.90;;;;;;5001274;28;25063;-69
2022/02/20 08:29:59;;;;;;;70.55;11.52;;;9.20;99.90;;;;;;4999925;28;25052;-71
2022/02/20 08:32:24;;;;;;;77.82;12.63;;;9.30;99.90;;;;;;5000596;28;25111;-70
2022/02/20 08:34:50;;;;;;;73.20;11.13;;;9.30;99.90;;;;;;5018148;28;25078;-71
2022/02/20 08:37:15;;;;;;;71.38;11.52;;;9.30;99.90;;;;;;5024705;28;25093;-71
2022/02/20 08:39:41;;;;;;;69.07;12.77;;;9.40;99.90;;;;;;5027144;28;25067;-69
2022/02/20 08:42:08;;;;;;;69.72;12.20;;;9.40;99.90;;;;;;5023913;28;25096;-70
2022/02/20 08:44:34;;;;;;;52.30;9.68;;;9.40;99.90;;;;;;5015211;28;25066;-69
2022/02/20 08:47:01;;;;;;;54.53;10.20;;;9.40;99.90;;;;;;5001876;28;25086;-71
2022/02/20 08:49:26;;;;;;;63.70;11.18;;;9.40;99.90;;;;;;4999280;28;25059;-70
2022/02/20 08:51:52;;;;;;;64.25;11.20;;;9.50;99.90;;;;;;5001984;28;25079;-72
2022/02/20 08:54:17;;;;;;;63.50;10.80;;;9.50;99.90;;;;;;4994286;28;25072;-70
2022/02/20 08:56:43;;;;;;;71.50;11.50;;;9.50;99.90;;;;;;4993542;28;25068;-70
2022/02/20 08:59:09;;;;;;;65.88;13.60;;;9.60;99.90;;;;;;4998338;28;25077;-71
2022/02/20 09:01:35;;;;;;;69.10;11.93;;;9.50;99.90;;;;;;4994786;28;25066;-71
2022/02/20 09:04:04;;;;;;;60.53;10.45;;;9.60;99.90;;;;;;4991007;28;25107;-71
2022/02/20 09:06:31;;;;;;;64.47;13.40;;;9.70;99.90;;;;;;4995008;28;25106;-73
2022/02/20 09:08:58;;;;;;;64.28;13.05;;;9.70;99.90;;;;;;5000853;28;25063;-73
2022/02/20 09:11:25;;;;;;;57.35;10.68;;;9.70;99.90;;;;;;4994911;28;25079;-70
2022/02/20 09:13:50;;;;;;;59.88;12.95;;;9.80;99.90;;;;;;4994271;28;25119;-70
2022/02/20 09:16:16;;;;;;;64.03;11.15;;;9.80;99.90;;;;;;4991451;28;25169;-70
2022/02/20 09:18:41;;;;;;;64.45;13.90;;;9.80;99.90;;;;;;5002626;28;25079;-71
2022/02/20 09:21:08;;;;;;;77.40;13.43;;;9.90;99.90;;;;;;5004538;28;25132;-71
2022/02/20 09:23:35;;;;;;;58.17;11.77;;;9.80;99.90;;;;;;5007533;28;25063;-69
2022/02/20 09:26:01;;;;;;;60.70;11.68;;;9.90;99.90;;;;;;5005125;28;24996;-72
2022/02/20 09:28:27;;;;;;;74.97;12.52;;;9.90;99.90;;;;;;5006200;28;25064;-72
2022/02/20 09:30:52;;;;;;;69.32;12.57;;;9.90;99.90;;;;;;5008013;28;25060;-72
2022/02/20 09:33:18;;;;;;;75.00;12.15;;;9.90;99.90;;;;;;4998088;28;25124;-73
2022/02/20 09:35:43;;;;;;;66.97;12.85;;;9.90;99.90;;;;;;5000758;28;25137;-71
2022/02/20 09:38:09;;;;;;;80.15;13.82;;;9.90;99.90;;;;;;5004202;28;25072;-70
2022/02/20 09:40:35;;;;;;;79.65;14.27;;;10.00;99.90;;;;;;5004669;28;25061;-72
2022/02/20 09:43:01;;;;;;;65.07;13.50;;;10.00;99.90;;;;;;5007464;28;25108;-70
2022/02/20 09:45:27;;;;;;;66.03;11.07;;;10.00;99.90;;;;;;4999244;28;25053;-70
2022/02/20 09:47:52;;;;;;;67.32;12.35;;;10.00;99.90;;;;;;4994253;28;25079;-71
2022/02/20 09:50:18;;;;;;;72.13;13.65;;;10.00;99.90;;;;;;5003068;28;25082;-72
2022/02/20 09:52:44;;;;;;;73.63;13.55;;;10.00;99.90;;;;;;4980630;28;25060;-72
2022/02/20 09:55:10;;;;;;;58.55;10.52;;;10.00;99.90;;;;;;4985004;28;25120;-70
2022/02/20 09:57:36;;;;;;;68.93;13.48;;;10.10;99.90;;;;;;5006792;28;25067;-71
2022/02/20 10:00:05;;;;;;;65.78;11.77;;;10.00;99.90;;;;;;5007998;28;25098;-71
2022/02/20 10:02:36;;;;;;;58.45;10.45;;;10.00;99.90;;;;;;5000505;28;25093;-70
2022/02/20 10:05:04;;;;;;;65.32;12.77;;;10.10;99.90;;;;;;5002725;28;25057;-70
2022/02/20 10:07:40;;;;;;;74.38;13.07;;;10.10;99.90;;;;;;5001428;28;25193;-70
2022/02/20 10:10:14;;;;;;;93.18;14.07;;;10.10;99.90;;;;;;5002839;28;25151;-71
2022/02/20 10:12:40;;;;;;;82.82;14.32;;;10.00;99.90;;;;;;5007805;28;25078;-71
2022/02/20 10:15:31;;;;;;;74.00;13.13;;;10.00;99.90;;;;;;5000224;28;25080;-72
2022/02/20 10:18:11;;;;;;;72.13;13.65;;;10.00;99.90;;;;;;4994672;28;25129;-71
2022/02/20 10:20:37;;;;;;;79.57;12.55;;;9.90;99.90;;;;;;5003293;28;25070;-73
2022/02/20 10:23:07;;;;;;;88.43;14.02;;;9.90;99.90;;;;;;5007543;28;25067;-70
2022/02/20 10:25:33;;;;;;;77.18;14.02;;;9.90;99.90;;;;;;5003507;28;25057;-72
2022/02/20 10:27:58;;;;;;;68.72;12.57;;;9.80;99.90;;;;;;4995416;28;25047;-74
2022/02/20 10:30:29;;;;;;;77.53;12.93;;;9.80;99.90;;;;;;4998450;28;25053;-72
2022/02/20 10:33:16;;;;;;;85.75;13.55;;;9.80;99.90;;;;;;5002028;28;25155;-73
2022/02/20 10:35:50;;;;;;;83.10;14.07;;;9.80;99.90;;;;;;4993489;28;25068;-72
2022/02/20 10:38:20;;;;;;;81.85;14.05;;;9.80;99.90;;;;;;5003655;28;25075;-72
2022/02/20 10:40:54;;;;;;;84.50;13.18;;;9.80;99.90;;;;;;5010991;28;25055;-72
2022/02/20 10:43:31;;;;;;;81.43;14.85;;;9.70;99.90;;;;;;5004254;28;25107;-73
2022/02/20 10:46:05;;;;;;;71.32;12.60;;;9.70;99.90;;;;;;5011832;28;25120;-72
2022/02/20 10:48:37;;;;;;;90.88;15.60;;;9.70;99.90;;;;;;5011002;28;25065;-70
2022/02/20 10:51:03;;;;;;;82.78;14.80;;;9.60;99.90;;;;;;5010589;28;25072;-71
2022/02/20 10:53:33;;;;;;;88.35;14.85;;;9.60;99.90;;;;;;5011460;28;25069;-72
2022/02/20 10:55:59;;;;;;;72.57;12.80;;;9.60;99.90;;;;;;5028113;28;25098;-73
2022/02/20 10:58:31;;;;;;;87.65;14.88;;;9.60;99.90;;;;;;4996051;28;25068;-72
2022/02/20 11:01:04;;;;;;;80.20;13.53;;;9.60;99.90;;;;;;5004967;28;25087;-72
2022/02/20 11:03:31;;;;;;;90.63;15.00;;;9.60;99.90;;;;;;4982877;28;25059;-70
2022/02/20 11:05:58;;;;;;;82.72;15.00;;;9.60;99.90;;;;;;5003979;28;25151;-71
2022/02/20 11:08:26;;;;;;;67.93;13.00;;;9.60;99.90;;;;;;5007897;28;25089;-71
2022/02/20 11:10:53;;;;;;;71.80;13.43;;;9.60;99.90;;;;;;5009590;28;25068;-74
2022/02/20 11:13:20;;;;;;;78.57;13.02;;;9.60;99.90;;;;;;5009673;28;25075;-72
2022/02/20 11:15:48;;;;;;;79.20;14.75;;;9.60;99.90;;;;;;5010459;28;25050;-72
2022/02/20 11:18:19;;;;;;;67.72;12.13;;;9.60;99.90;;;;;;5009983;28;25056;-72
2022/02/20 11:20:46;;;;;;;80.72;14.38;;;9.50;99.90;;;;;;4993843;28;25081;-71
2022/02/20 11:23:15;;;;;;;71.40;12.60;;;9.60;99.90;;;;;;5010282;28;25092;-71
2022/02/20 11:25:43;;;;;;;65.05;11.48;;;9.60;99.90;;;;;;5011248;28;25136;-72
2022/02/20 11:28:08;;;;;;;82.18;15.73;;;9.60;99.90;;;;;;5010429;28;25147;-72
2022/02/20 11:30:35;;;;;;;86.93;14.23;;;9.60;99.90;;;;;;4992861;28;25095;-73
2022/02/20 11:33:04;;;;;;;70.47;13.18;;;9.60;99.90;;;;;;5006962;28;25143;-71
2022/02/20 11:35:31;;;;;;;63.38;11.15;;;9.60;99.90;;;;;;5009187;28;25074;-72
2022/02/20 11:38:04;;;;;;;70.82;12.90;;;9.60;99.90;;;;;;5000611;28;25078;-73
2022/02/20 11:40:31;;;;;;;70.45;13.00;;;9.60;99.90;;;;;;4994437;28;25085;-73
2022/02/20 11:43:00;;;;;;;77.35;15.13;;;9.70;99.90;;;;;;4994543;28;25142;-74
2022/02/20 11:45:28;;;;;;;69.93;13.75;;;9.70;99.90;;;;;;4999286;28;25052;-71
2022/02/20 11:48:09;;;;;;;82.35;15.00;;;9.60;99.90;;;;;;4999801;28;25133;-73
2022/02/20 11:50:36;;;;;;;76.18;13.18;;;9.60;99.90;;;;;;5003058;28;25116;-73
2022/02/20 11:53:12;;;;;;;68.80;12.82;;;9.60;99.90;;;;;;4997569;28;25060;-74
2022/02/20 11:55:41;;;;;;;72.03;14.02;;;9.60;99.90;;;;;;4996860;28;25098;-72
2022/02/20 12:01:00;;;;;;;80.47;13.03;;;9.60;99.90;;;;;;5009060;28;25050;-72
2022/02/20 12:03:30;;;;;;;81.10;12.10;;;9.60;99.90;;;;;;4995001;28;25083;-71
2022/02/20 12:06:08;;;;;;;66.50;12.30;;;9.60;99.90;;;;;;5009899;28;25052;-73
2022/02/20 12:08:35;;;;;;;60.00;12.68;;;9.60;99.90;;;;;;5010369;28;25104;-72
2022/02/20 12:11:13;;;;;;;68.00;12.85;;;9.60;99.90;;;;;;5009230;28;25048;-73
2022/02/20 12:13:52;;;;;;;65.65;12.88;;;9.60;99.90;;;;;;5007590;28;25069;-74
2022/02/20 12:16:20;;;;;;;75.95;13.40;;;9.60;99.90;;;;;;5004934;28;25070;-73
2022/02/20 12:19:25;;;;;;;66.35;12.80;;;9.60;99.90;;;;;;5011627;28;25077;-74
2022/02/20 12:21:55;;;;;;;81.47;12.45;;;9.50;99.90;;;;;;4934890;29;25075;-71
2022/02/20 12:24:27;;;;;;;71.20;12.20;;;9.50;99.90;;;;;;4939733;28;25145;-71
2022/02/20 12:26:58;;;;;;;58.90;11.27;;;9.50;99.90;;;;;;4970865;28;25055;-72
2022/02/20 12:29:42;;;;;;;77.18;13.85;;;9.50;99.90;;;;;;5005088;28;25129;-71
2022/02/20 12:32:16;;;;;;;82.65;13.15;;;9.50;99.90;;;;;;4998926;28;25089;-71
2022/02/20 12:35:03;;;;;;;70.13;13.25;;;9.50;99.90;;;;;;5000895;28;25111;-71
2022/02/20 12:37:34;;;;;;;86.80;16.60;;;9.50;99.90;;;;;;5009375;28;25116;-72
2022/02/20 12:40:22;;;;;;;75.57;12.57;;;9.50;99.90;;;;;;5009384;28;25094;-72
2022/02/20 12:42:55;;;;;;;64.60;12.45;;;9.50;99.90;;;;;;5010563;28;25082;-71